Terminal Aerodrome Forecast
Issued by NWS

Home | Current Version | Previous Version | Graphics & Text | Print | Product List | Glossary On
Versions: 1 2 3 4 5 6 7 8 9 10 11 12 13 14 15 16 17 18 19 20 21 22 23
000
FTUS43 KTOP 211026 AAA
TAFFOE
TAF AMD
KFOE 211026Z 2110/2206 13005KT 3SM BR OVC015
      TEMPO 2110/2114 1SM BR BKN007
     FM211600 15006KT P6SM BKN012
     FM211900 17007KT P6SM SCT040
     FM212300 16005KT P6SM VCSH BKN050=

USA.gov is the U.S. government's official web portal to all federal, state and local government web resources and services.